createdAt,value
2023-05-05T00:02:14.805Z,98758.00
2023-05-05T00:05:03.227Z,98762.00
2023-05-05T00:07:50.775Z,98749.00
2023-05-05T00:10:38.305Z,98751.00
2023-05-05T00:13:26.073Z,98752.00
2023-05-05T00:16:13.460Z,98750.00
2023-05-05T00:19:01.354Z,98739.00
2023-05-05T00:21:48.875Z,98734.00
2023-05-05T00:24:36.514Z,98728.00
2023-05-05T00:27:23.933Z,98722.00
2023-05-05T00:30:11.753Z,98725.00
2023-05-05T00:32:59.271Z,98727.00
2023-05-05T00:35:46.828Z,98727.00
2023-05-05T00:38:34.468Z,98735.00
2023-05-05T00:41:21.957Z,98724.00
2023-05-05T00:44:09.548Z,98726.00
2023-05-05T00:46:57.130Z,98734.00
2023-05-05T00:49:44.674Z,98722.00
2023-05-05T00:52:32.283Z,98724.00
2023-05-05T00:55:20.863Z,98721.00
2023-05-05T00:58:10.135Z,98724.00
2023-05-05T01:00:57.727Z,98728.00
2023-05-05T01:03:45.454Z,98726.00
2023-05-05T01:07:12.955Z,98724.00
2023-05-05T01:10:41.090Z,98720.00
2023-05-05T01:13:59.405Z,98722.00
2023-05-05T01:17:00.850Z,98717.00
2023-05-05T01:20:33.362Z,98721.00
2023-05-05T01:24:17.244Z,98716.00
2023-05-05T01:27:52.718Z,98719.00
2023-05-05T01:30:58.778Z,98724.00
2023-05-05T01:33:58.439Z,98717.00
2023-05-05T01:37:13.839Z,98714.00
2023-05-05T01:40:08.868Z,98719.00
2023-05-05T01:43:00.754Z,98721.00
2023-05-05T01:45:51.458Z,98722.00
2023-05-05T01:48:42.239Z,98719.00
2023-05-05T01:51:30.750Z,98723.00
2023-05-05T01:54:20.386Z,98728.00
2023-05-05T01:57:11.417Z,98736.00
2023-05-05T02:00:06.267Z,98735.00
2023-05-05T02:02:57.686Z,98736.00
2023-05-05T02:05:48.727Z,98728.00
2023-05-05T02:08:39.702Z,98725.00
2023-05-05T02:11:29.752Z,98726.00
2023-05-05T02:14:20.676Z,98730.00
2023-05-05T02:17:09.821Z,98732.00
2023-05-05T02:20:01.136Z,98734.00
2023-05-05T02:22:49.194Z,98719.00
2023-05-05T02:25:43.555Z,98721.00
2023-05-05T02:28:46.666Z,98711.00
2023-05-05T02:31:44.355Z,98719.00
2023-05-05T02:34:38.596Z,98724.00
2023-05-05T02:37:31.539Z,98729.00
2023-05-05T02:40:26.622Z,98728.00
2023-05-05T02:43:19.707Z,98732.00
2023-05-05T02:46:07.969Z,98732.00
2023-05-05T02:48:55.701Z,98729.00
2023-05-05T02:51:43.133Z,98731.00
2023-05-05T02:54:32.848Z,98726.00
2023-05-05T02:57:37.718Z,98730.00
2023-05-05T03:01:07.398Z,98727.00
2023-05-05T03:04:07.437Z,98728.00
2023-05-05T03:07:01.681Z,98743.00
2023-05-05T03:10:12.229Z,98739.00
2023-05-05T03:13:03.218Z,98744.00
2023-05-05T03:15:56.950Z,98747.00
2023-05-05T03:18:48.138Z,98741.00
2023-05-05T03:21:36.879Z,98750.00
2023-05-05T03:24:24.329Z,98749.00
2023-05-05T03:27:11.758Z,98755.00
2023-05-05T03:29:59.426Z,98758.00
2023-05-05T03:32:47.028Z,98746.00
2023-05-05T03:35:34.555Z,98753.00
2023-05-05T03:38:22.010Z,98757.00
2023-05-05T03:41:09.480Z,98757.00
2023-05-05T03:43:57.030Z,98754.00
2023-05-05T03:46:44.576Z,98766.00
2023-05-05T03:49:32.116Z,98767.00
2023-05-05T03:52:19.557Z,98767.00
2023-05-05T03:55:07.596Z,98767.00
2023-05-05T03:57:57.709Z,98767.00
2023-05-05T04:00:45.224Z,98760.00
2023-05-05T04:03:32.950Z,98771.00
2023-05-05T04:06:20.912Z,98764.00
2023-05-05T04:09:08.423Z,98774.00
2023-05-05T04:11:56.154Z,98770.00
2023-05-05T04:14:43.640Z,98776.00
2023-05-05T04:17:31.227Z,98783.00
2023-05-05T04:20:18.970Z,98794.00
2023-05-05T04:23:06.487Z,98791.00
2023-05-05T04:25:54.075Z,98788.00
2023-05-05T04:28:42.082Z,98794.00
2023-05-05T04:31:29.639Z,98783.00
2023-05-05T04:34:17.182Z,98791.00
2023-05-05T04:37:04.616Z,98809.00
2023-05-05T04:39:52.570Z,98805.00
2023-05-05T04:42:40.138Z,98816.00
2023-05-05T04:45:27.576Z,98809.00
2023-05-05T04:48:15.116Z,98816.00
2023-05-05T04:51:08.952Z,98816.00
2023-05-05T04:53:56.441Z,98816.00
2023-05-05T04:56:44.011Z,98812.00
2023-05-05T04:59:31.573Z,98826.00
2023-05-05T05:02:19.130Z,98826.00
2023-05-05T05:05:07.792Z,98832.00
2023-05-05T05:07:55.415Z,98830.00
2023-05-05T05:10:43.802Z,98841.00
2023-05-05T05:13:31.604Z,98837.00
2023-05-05T05:16:19.297Z,98832.00
2023-05-05T05:19:06.821Z,98840.00
2023-05-05T05:21:54.259Z,98838.00
2023-05-05T05:24:41.708Z,98845.00
2023-05-05T05:27:29.248Z,98844.00
2023-05-05T05:30:16.690Z,98843.00
2023-05-05T05:33:04.304Z,98842.00
2023-05-05T05:35:51.848Z,98841.00
2023-05-05T05:38:39.337Z,98843.00
2023-05-05T05:41:26.856Z,98846.00
2023-05-05T05:44:14.292Z,98853.00
2023-05-05T05:47:01.811Z,98846.00
2023-05-05T05:49:49.276Z,98849.00
2023-05-05T05:52:36.962Z,98848.00
2023-05-05T05:55:24.511Z,98847.00
2023-05-05T05:58:11.966Z,98843.00
2023-05-05T06:00:59.991Z,98848.00
2023-05-05T06:03:47.565Z,98843.00
2023-05-05T06:06:35.240Z,98849.00
2023-05-05T06:09:22.762Z,98845.00
2023-05-05T06:12:10.395Z,98850.00
2023-05-05T06:14:57.850Z,98852.00
2023-05-05T06:17:45.761Z,98852.00
2023-05-05T06:20:35.956Z,98850.00
2023-05-05T06:23:23.435Z,98855.00
2023-05-05T06:26:10.884Z,98856.00
2023-05-05T06:28:58.418Z,98856.00
2023-05-05T06:31:46.529Z,98847.00
2023-05-05T06:34:34.672Z,98848.00
2023-05-05T06:37:22.126Z,98842.00
2023-05-05T06:40:10.883Z,98847.00
2023-05-05T06:42:58.439Z,98850.00
2023-05-05T06:45:46.478Z,98846.00
2023-05-05T06:48:33.913Z,98852.00
2023-05-05T06:51:22.847Z,98851.00
2023-05-05T06:54:10.321Z,98857.00
2023-05-05T06:56:59.531Z,98850.00
2023-05-05T06:59:47.258Z,98848.00
2023-05-05T07:02:34.913Z,98842.00
2023-05-05T07:05:22.638Z,98839.00
2023-05-05T07:08:11.439Z,98842.00
2023-05-05T07:11:01.086Z,98846.00
2023-05-05T07:13:49.398Z,98840.00
2023-05-05T07:16:37.425Z,98837.00
2023-05-05T07:19:25.164Z,98833.00
2023-05-05T07:22:12.660Z,98829.00
2023-05-05T07:25:00.215Z,98829.00
2023-05-05T07:27:47.772Z,98830.00
2023-05-05T07:30:35.417Z,98830.00
2023-05-05T07:33:22.906Z,98829.00
2023-05-05T07:36:10.543Z,98822.00
2023-05-05T07:38:58.020Z,98817.00
2023-05-05T07:41:45.666Z,98823.00
2023-05-05T07:44:33.213Z,98825.00
2023-05-05T07:47:20.984Z,98826.00
2023-05-05T07:50:09.162Z,98825.00
2023-05-05T07:53:06.136Z,98823.00
2023-05-05T07:56:01.228Z,98823.00
2023-05-05T07:58:48.814Z,98816.00
2023-05-05T08:01:36.328Z,98822.00
2023-05-05T08:04:24.142Z,98816.00
2023-05-05T08:07:11.723Z,98820.00
2023-05-05T08:09:59.178Z,98817.00
2023-05-05T08:12:46.666Z,98818.00
2023-05-05T08:15:34.201Z,98810.00
2023-05-05T08:18:22.080Z,98805.00
2023-05-05T08:21:11.685Z,98804.00
2023-05-05T08:23:59.115Z,98811.00
2023-05-05T08:26:46.667Z,98813.00
2023-05-05T08:29:34.403Z,98811.00
2023-05-05T08:32:21.919Z,98818.00
2023-05-05T08:35:10.171Z,98816.00
2023-05-05T08:37:59.207Z,98811.00
2023-05-05T08:40:47.380Z,98820.00
2023-05-05T08:43:36.585Z,98819.00
2023-05-05T08:46:28.170Z,98813.00
2023-05-05T08:49:18.814Z,98816.00
2023-05-05T08:52:12.982Z,98809.00
2023-05-05T08:55:29.374Z,98805.00
2023-05-05T08:58:19.557Z,98801.00
2023-05-05T09:01:08.313Z,98804.00
2023-05-05T09:03:58.980Z,98803.00
2023-05-05T09:06:46.550Z,98798.00
2023-05-05T09:09:34.478Z,98800.00
2023-05-05T09:12:23.193Z,98793.00
2023-05-05T09:15:16.605Z,98803.00
2023-05-05T09:18:09.527Z,98793.00
2023-05-05T09:20:59.399Z,98792.00
2023-05-05T09:24:09.546Z,98787.00
2023-05-05T09:26:59.082Z,98777.00
2023-05-05T09:29:49.958Z,98777.00
2023-05-05T09:32:49.184Z,98783.00
2023-05-05T09:35:50.084Z,98774.00
2023-05-05T09:38:37.588Z,98765.00
2023-05-05T09:41:45.427Z,98770.00
2023-05-05T09:44:38.211Z,98770.00
2023-05-05T09:47:36.016Z,98773.00
2023-05-05T09:50:23.760Z,98764.00
2023-05-05T09:53:11.967Z,98771.00
2023-05-05T09:56:01.124Z,98767.00
2023-05-05T09:58:48.634Z,98769.00
2023-05-05T10:01:36.520Z,98765.00
2023-05-05T10:04:30.057Z,98760.00
2023-05-05T10:07:24.908Z,98758.00
2023-05-05T10:10:18.385Z,98754.00
2023-05-05T10:13:06.180Z,98753.00
2023-05-05T10:15:56.640Z,98752.00
2023-05-05T10:18:47.687Z,98753.00
2023-05-05T10:21:41.964Z,98757.00
2023-05-05T10:25:00.168Z,98748.00
2023-05-05T10:27:54.902Z,98743.00
2023-05-05T10:30:49.278Z,98745.00
2023-05-05T10:33:59.434Z,98743.00
2023-05-05T10:36:49.114Z,98744.00
2023-05-05T10:39:37.936Z,98733.00
2023-05-05T10:42:25.725Z,98722.00
2023-05-05T10:45:13.295Z,98726.00
2023-05-05T10:48:08.985Z,98713.00
2023-05-05T10:51:31.009Z,98707.00
2023-05-05T10:54:52.502Z,98703.00
2023-05-05T10:57:44.535Z,98700.00
2023-05-05T11:00:41.240Z,98693.00
2023-05-05T11:03:29.353Z,98693.00
2023-05-05T11:06:16.955Z,98689.00
2023-05-05T11:09:28.699Z,98693.00
2023-05-05T11:12:16.228Z,98682.00
2023-05-05T11:15:29.851Z,98677.00
2023-05-05T11:18:38.549Z,98675.00
2023-05-05T11:21:27.761Z,98663.00
2023-05-05T11:24:31.603Z,98665.00
2023-05-05T11:27:19.230Z,98668.00
2023-05-05T11:30:11.273Z,98659.00
2023-05-05T11:33:24.800Z,98662.00
2023-05-05T11:36:20.477Z,98653.00
2023-05-05T11:40:16.689Z,98657.00
2023-05-05T11:43:07.545Z,98651.00
2023-05-05T11:46:12.202Z,98647.00
2023-05-05T11:48:59.722Z,98648.00
2023-05-05T11:52:15.316Z,98638.00
2023-05-05T11:55:03.859Z,98637.00
2023-05-05T11:57:52.461Z,98643.00
2023-05-05T12:00:40.112Z,98637.00
2023-05-05T12:03:27.823Z,98635.00
2023-05-05T12:06:15.587Z,98636.00
2023-05-05T12:09:04.376Z,98635.00
2023-05-05T12:11:58.160Z,98634.00
2023-05-05T12:14:52.782Z,98634.00
2023-05-05T12:17:45.054Z,98635.00
2023-05-05T12:20:36.696Z,98627.00
2023-05-05T12:23:27.376Z,98624.00
2023-05-05T12:26:32.157Z,98624.00
2023-05-05T12:29:30.059Z,98619.00
2023-05-05T12:32:30.278Z,98626.00
2023-05-05T12:35:18.095Z,98624.00
2023-05-05T12:38:05.975Z,98619.00
2023-05-05T12:40:55.860Z,98616.00
2023-05-05T12:43:43.365Z,98608.00
2023-05-05T12:46:32.087Z,98607.00
2023-05-05T12:49:19.661Z,98594.00
2023-05-05T12:52:08.091Z,98595.00
2023-05-05T12:55:00.606Z,98592.00
2023-05-05T12:58:06.626Z,98591.00
2023-05-05T13:01:14.307Z,98585.00
2023-05-05T13:04:14.092Z,98581.00
2023-05-05T13:07:14.302Z,98572.00
2023-05-05T13:10:11.347Z,98565.00
2023-05-05T13:12:59.023Z,98563.00
2023-05-05T13:15:46.580Z,98563.00
2023-05-05T13:18:53.692Z,98554.00
2023-05-05T13:21:41.906Z,98547.00
2023-05-05T13:24:46.452Z,98549.00
2023-05-05T13:27:37.894Z,98543.00
2023-05-05T13:30:25.604Z,98538.00
2023-05-05T13:33:13.125Z,98535.00
2023-05-05T13:36:04.355Z,98528.00
2023-05-05T13:38:51.817Z,98530.00
2023-05-05T13:41:39.419Z,98524.00
2023-05-05T13:44:26.853Z,98516.00
2023-05-05T13:47:14.579Z,98507.00
2023-05-05T13:50:02.136Z,98501.00
2023-05-05T13:52:49.650Z,98501.00
2023-05-05T13:55:37.226Z,98490.00
2023-05-05T13:58:24.870Z,98492.00
2023-05-05T14:01:12.373Z,98486.00
2023-05-05T14:04:00.929Z,98485.00
2023-05-05T14:06:49.605Z,98483.00
2023-05-05T14:09:37.095Z,98481.00
2023-05-05T14:12:24.769Z,98475.00
2023-05-05T14:15:12.486Z,98475.00
2023-05-05T14:18:00.178Z,98471.00
2023-05-05T14:20:47.725Z,98466.00
2023-05-05T14:23:35.277Z,98464.00
2023-05-05T14:26:22.740Z,98455.00
2023-05-05T14:29:10.213Z,98460.00
2023-05-05T14:31:57.903Z,98452.00
2023-05-05T14:34:45.644Z,98457.00
2023-05-05T14:37:34.612Z,98450.00
2023-05-05T14:40:22.167Z,98448.00
2023-05-05T14:43:09.625Z,98449.00
2023-05-05T14:45:59.160Z,98447.00
2023-05-05T14:48:47.377Z,98445.00
2023-05-05T14:51:34.796Z,98444.00
2023-05-05T14:54:28.371Z,98447.00
2023-05-05T14:57:16.526Z,98442.00
2023-05-05T15:00:04.908Z,98430.00
2023-05-05T15:02:52.584Z,98434.00
2023-05-05T15:05:40.302Z,98438.00
2023-05-05T15:08:27.862Z,98443.00
2023-05-05T15:11:15.451Z,98440.00
2023-05-05T15:14:02.981Z,98430.00
2023-05-05T15:16:50.473Z,98436.00
2023-05-05T15:19:37.914Z,98428.00
2023-05-05T15:22:25.434Z,98434.00
2023-05-05T15:25:15.012Z,98424.00
2023-05-05T15:28:02.676Z,98425.00
2023-05-05T15:30:50.823Z,98425.00
2023-05-05T15:33:38.887Z,98424.00
2023-05-05T15:36:26.789Z,98424.00
2023-05-05T15:39:14.304Z,98419.00
2023-05-05T15:42:03.921Z,98422.00
2023-05-05T15:44:52.351Z,98413.00
2023-05-05T15:47:39.852Z,98416.00
2023-05-05T15:50:27.398Z,98415.00
2023-05-05T15:53:14.891Z,98407.00
2023-05-05T15:56:02.793Z,98403.00
2023-05-05T15:58:50.270Z,98410.00
2023-05-05T16:01:37.965Z,98401.00
2023-05-05T16:04:25.554Z,98406.00
2023-05-05T16:07:13.146Z,98408.00
2023-05-05T16:10:00.947Z,98405.00
2023-05-05T16:12:48.728Z,98402.00
2023-05-05T16:15:36.334Z,98394.00
2023-05-05T16:18:23.858Z,98399.00
2023-05-05T16:21:11.517Z,98391.00
2023-05-05T16:23:59.231Z,98393.00
2023-05-05T16:26:46.762Z,98385.00
2023-05-05T16:29:34.213Z,98390.00
2023-05-05T16:32:21.647Z,98378.00
2023-05-05T16:35:09.562Z,98384.00
2023-05-05T16:37:57.502Z,98387.00
2023-05-05T16:40:45.011Z,98381.00
2023-05-05T16:43:33.164Z,98379.00
2023-05-05T16:46:20.669Z,98385.00
2023-05-05T16:49:08.596Z,98374.00
2023-05-05T16:51:57.210Z,98375.00
2023-05-05T16:54:44.701Z,98370.00
2023-05-05T16:57:32.400Z,98370.00
2023-05-05T17:00:20.193Z,98365.00
2023-05-05T17:03:07.685Z,98367.00
2023-05-05T17:05:55.489Z,98359.00
2023-05-05T17:08:43.134Z,98362.00
2023-05-05T17:11:30.767Z,98361.00
2023-05-05T17:14:18.632Z,98358.00
2023-05-05T17:17:07.255Z,98362.00
2023-05-05T17:19:54.760Z,98358.00
2023-05-05T17:22:42.157Z,98356.00
2023-05-05T17:25:29.852Z,98354.00
2023-05-05T17:28:17.705Z,98355.00
2023-05-05T17:31:05.873Z,98356.00
2023-05-05T17:33:53.336Z,98353.00
2023-05-05T17:36:41.111Z,98343.00
2023-05-05T17:39:29.054Z,98348.00
2023-05-05T17:42:18.851Z,98346.00
2023-05-05T17:45:07.906Z,98352.00
2023-05-05T17:47:55.877Z,98356.00
2023-05-05T17:50:43.629Z,98354.00
2023-05-05T17:53:31.220Z,98355.00
2023-05-05T17:56:18.780Z,98358.00
2023-05-05T17:59:06.407Z,98356.00
2023-05-05T18:01:53.906Z,98356.00
2023-05-05T18:04:41.370Z,98351.00
2023-05-05T18:07:29.106Z,98349.00
2023-05-05T18:10:16.786Z,98356.00
2023-05-05T18:13:04.246Z,98355.00
2023-05-05T18:15:51.767Z,98364.00
2023-05-05T18:18:41.253Z,98364.00
2023-05-05T18:21:30.007Z,98362.00
2023-05-05T18:24:20.300Z,98358.00
2023-05-05T18:27:08.298Z,98354.00
2023-05-05T18:29:55.781Z,98359.00
2023-05-05T18:32:43.378Z,98366.00
2023-05-05T18:35:30.932Z,98356.00
2023-05-05T18:38:18.427Z,98364.00
2023-05-05T18:41:05.874Z,98352.00
2023-05-05T18:43:53.431Z,98353.00
2023-05-05T18:46:41.038Z,98361.00
2023-05-05T18:49:31.151Z,98363.00
2023-05-05T18:52:19.060Z,98362.00
2023-05-05T18:55:07.627Z,98357.00
2023-05-05T18:57:55.274Z,98355.00
2023-05-05T19:00:42.852Z,98345.00
2023-05-05T19:03:30.452Z,98347.00
2023-05-05T19:06:18.417Z,98348.00
2023-05-05T19:09:06.164Z,98342.00
2023-05-05T19:11:53.861Z,98346.00
2023-05-05T19:14:41.588Z,98334.00
2023-05-05T19:17:29.054Z,98345.00
2023-05-05T19:20:16.510Z,98339.00
2023-05-05T19:23:05.336Z,98335.00
2023-05-05T19:25:53.108Z,98337.00
2023-05-05T19:28:40.586Z,98327.00
2023-05-05T19:31:28.281Z,98329.00
2023-05-05T19:34:15.855Z,98323.00
2023-05-05T19:37:03.406Z,98321.00
2023-05-05T19:39:51.671Z,98319.00
2023-05-05T19:42:39.352Z,98325.00
2023-05-05T19:45:26.822Z,98330.00
2023-05-05T19:48:14.293Z,98334.00
2023-05-05T19:51:01.685Z,98335.00
2023-05-05T19:53:49.303Z,98333.00
2023-05-05T19:56:37.008Z,98338.00
2023-05-05T19:59:24.757Z,98341.00
2023-05-05T20:02:12.284Z,98339.00
2023-05-05T20:05:00.004Z,98337.00
2023-05-05T20:07:47.598Z,98341.00
2023-05-05T20:10:35.243Z,98341.00
2023-05-05T20:13:23.144Z,98350.00
2023-05-05T20:16:11.209Z,98348.00
2023-05-05T20:18:59.141Z,98353.00
2023-05-05T20:21:46.641Z,98352.00
2023-05-05T20:24:34.117Z,98354.00
2023-05-05T20:27:21.804Z,98351.00
2023-05-05T20:30:13.446Z,98349.00
2023-05-05T20:33:01.044Z,98355.00
2023-05-05T20:35:50.971Z,98353.00
2023-05-05T20:38:38.522Z,98355.00
2023-05-05T20:41:26.391Z,98350.00
2023-05-05T20:44:13.920Z,98348.00
2023-05-05T20:47:01.642Z,98349.00
2023-05-05T20:49:49.344Z,98343.00
2023-05-05T20:52:36.810Z,98336.00
2023-05-05T20:55:25.744Z,98335.00
2023-05-05T20:58:13.266Z,98328.00
2023-05-05T21:01:00.749Z,98323.00
2023-05-05T21:03:48.205Z,98329.00
2023-05-05T21:06:35.757Z,98324.00
2023-05-05T21:09:24.162Z,98318.00
2023-05-05T21:12:11.677Z,98322.00
2023-05-05T21:14:59.682Z,98317.00
2023-05-05T21:17:47.917Z,98328.00
2023-05-05T21:20:35.895Z,98325.00
2023-05-05T21:23:23.332Z,98335.00
2023-05-05T21:26:10.939Z,98335.00
2023-05-05T21:28:58.429Z,98331.00
2023-05-05T21:31:46.010Z,98327.00
2023-05-05T21:34:33.523Z,98321.00
2023-05-05T21:37:21.213Z,98324.00
2023-05-05T21:40:13.779Z,98315.00
2023-05-05T21:43:01.533Z,98313.00
2023-05-05T21:45:57.506Z,98308.00
2023-05-05T21:48:47.438Z,98318.00
2023-05-05T21:51:35.094Z,98321.00
2023-05-05T21:54:22.656Z,98324.00
2023-05-05T21:57:10.130Z,98327.00
2023-05-05T21:59:57.620Z,98328.00
2023-05-05T22:02:45.958Z,98333.00
2023-05-05T22:05:33.671Z,98339.00
2023-05-05T22:08:21.174Z,98342.00
2023-05-05T22:11:08.672Z,98363.00
2023-05-05T22:13:56.619Z,98449.00
2023-05-05T22:16:44.270Z,98514.00
2023-05-05T22:19:32.121Z,98544.00
2023-05-05T22:22:19.547Z,98523.00
2023-05-05T22:25:07.901Z,98537.00
2023-05-05T22:27:55.894Z,98531.00
2023-05-05T22:30:43.644Z,98551.00
2023-05-05T22:33:31.413Z,98568.00
2023-05-05T22:36:18.907Z,98565.00
2023-05-05T22:39:06.624Z,98573.00
2023-05-05T22:41:54.148Z,98583.00
2023-05-05T22:44:41.585Z,98582.00
2023-05-05T22:47:29.173Z,98590.00
2023-05-05T22:50:16.697Z,98599.00
2023-05-05T22:53:04.362Z,98599.00
2023-05-05T22:55:52.495Z,98610.00
2023-05-05T22:58:40.103Z,98614.00
2023-05-05T23:01:27.635Z,98604.00
2023-05-05T23:04:15.251Z,98607.00
2023-05-05T23:07:02.874Z,98610.00
2023-05-05T23:09:50.421Z,98607.00
2023-05-05T23:12:38.023Z,98603.00
2023-05-05T23:15:26.963Z,98605.00
2023-05-05T23:18:14.408Z,98610.00
2023-05-05T23:21:02.062Z,98604.00
2023-05-05T23:23:49.699Z,98602.00
2023-05-05T23:26:37.296Z,98609.00
2023-05-05T23:29:24.851Z,98609.00
2023-05-05T23:32:12.258Z,98612.00
2023-05-05T23:34:59.738Z,98614.00
2023-05-05T23:37:47.201Z,98604.00
2023-05-05T23:40:34.830Z,98593.00
2023-05-05T23:43:22.288Z,98605.00
2023-05-05T23:46:09.892Z,98599.00
2023-05-05T23:48:57.466Z,98599.00
2023-05-05T23:51:44.985Z,98603.00
2023-05-05T23:54:32.522Z,98606.00
2023-05-05T23:57:22.530Z,98597.00
